Terminal Aerodrome Forecast
Issued by NWS Topeka, KS

Home | Current Version | Previous Version | Graphics & Text | Print | Product List | Glossary On
Versions: 1 2 3 4 5 6 7 8 9 10 11 12 13 14 15 16
000
FTUS43 KTOP 261224 AAA
TAFTOP
TAF AMD
KTOP 261224Z 2612/2712 14006KT P6SM VCTS SCT040CB BKN090
     FM261445 19008KT P6SM SCT100
     FM270100 17004KT P6SM SCT200=

USA.gov is the U.S. government's official web portal to all federal, state and local government web resources and services.